createdAt,value
2018-11-10T00:00:45.061Z,32.13
2018-11-10T00:03:14.094Z,26.27
2018-11-10T00:05:43.282Z,24.50
2018-11-10T00:08:12.596Z,23.70
2018-11-10T00:10:41.749Z,29.13
2018-11-10T00:13:10.688Z,32.70
2018-11-10T00:15:39.972Z,36.07
2018-11-10T00:18:09.133Z,36.63
2018-11-10T00:20:38.110Z,33.27
2018-11-10T00:23:07.348Z,96.50
2018-11-10T00:25:36.454Z,36.93
2018-11-10T00:28:05.618Z,37.43
2018-11-10T00:30:34.593Z,38.70
2018-11-10T00:33:03.652Z,34.63
2018-11-10T00:35:32.755Z,34.20
2018-11-10T00:38:01.927Z,37.53
2018-11-10T00:40:31.033Z,36.63
2018-11-10T00:43:00.178Z,39.13
2018-11-10T00:45:29.445Z,35.53
2018-11-10T00:47:58.246Z,37.23
2018-11-10T00:50:27.330Z,40.53
2018-11-10T00:52:56.214Z,36.93
2018-11-10T00:55:25.361Z,35.97
2018-11-10T00:57:54.392Z,28.37
2018-11-10T01:00:23.186Z,26.50
2018-11-10T01:02:52.109Z,27.40
2018-11-10T01:05:21.066Z,25.00
2018-11-10T01:07:50.211Z,23.03
2018-11-10T01:10:19.394Z,19.70
2018-11-10T01:12:48.635Z,20.37
2018-11-10T01:15:17.839Z,20.83
2018-11-10T01:17:46.981Z,17.53
2018-11-10T01:20:16.081Z,21.33
2018-11-10T01:22:44.977Z,17.60
2018-11-10T01:25:14.272Z,18.53
2018-11-10T01:27:43.382Z,19.53
2018-11-10T01:30:15.326Z,19.23
2018-11-10T01:32:45.088Z,20.37
2018-11-10T01:35:14.641Z,17.53
2018-11-10T01:37:43.737Z,19.63
2018-11-10T01:40:14.058Z,20.60
2018-11-10T01:42:43.779Z,20.27
2018-11-10T01:45:15.626Z,19.27
2018-11-10T01:47:45.241Z,21.67
2018-11-10T01:50:14.173Z,19.50
2018-11-10T01:52:43.422Z,22.97
2018-11-10T01:55:12.629Z,17.43
2018-11-10T01:57:42.128Z,18.83
2018-11-10T02:00:15.876Z,18.37
2018-11-10T02:02:45.369Z,17.10
2018-11-10T02:05:14.692Z,19.17
2018-11-10T02:07:43.573Z,20.80
2018-11-10T02:10:13.136Z,16.13
2018-11-10T02:12:42.565Z,16.17
2018-11-10T02:15:14.006Z,15.83
2018-11-10T02:17:43.185Z,16.50
2018-11-10T02:20:13.349Z,65.10
2018-11-10T02:22:42.910Z,61.73
2018-11-10T02:25:12.613Z,30.23
2018-11-10T02:27:42.169Z,29.27
2018-11-10T02:30:12.126Z,20.10
2018-11-10T02:32:41.410Z,19.17
2018-11-10T02:35:10.487Z,19.47
2018-11-10T02:37:40.062Z,24.13
2018-11-10T02:40:11.452Z,22.17
2018-11-10T02:42:40.315Z,18.40
2018-11-10T02:45:10.941Z,16.93
2018-11-10T02:47:39.768Z,16.83
2018-11-10T02:50:08.870Z,17.63
2018-11-10T02:52:38.109Z,19.87
2018-11-10T02:55:07.791Z,35.23
2018-11-10T02:57:36.770Z,32.60
2018-11-10T03:00:06.287Z,25.30
2018-11-10T03:02:35.435Z,23.90
2018-11-10T03:05:04.579Z,23.30
2018-11-10T03:07:33.778Z,21.37
2018-11-10T03:10:03.126Z,22.00
2018-11-10T03:12:32.373Z,24.27
2018-11-10T03:15:01.526Z,22.90
2018-11-10T03:17:30.850Z,25.83
2018-11-10T03:19:59.965Z,25.27
2018-11-10T03:22:28.957Z,23.77
2018-11-10T03:24:58.049Z,25.20
2018-11-10T03:27:27.196Z,19.87
2018-11-10T03:29:56.246Z,21.37
2018-11-10T03:32:25.437Z,18.20
2018-11-10T03:34:54.625Z,17.40
2018-11-10T03:37:23.798Z,18.37
2018-11-10T03:39:52.933Z,16.50
2018-11-10T03:42:22.126Z,17.93
2018-11-10T03:44:51.289Z,14.70
2018-11-10T03:47:20.427Z,14.97
2018-11-10T03:49:52.228Z,15.73
2018-11-10T03:52:21.685Z,16.20
2018-11-10T03:54:50.575Z,15.77
2018-11-10T03:57:19.711Z,15.93
2018-11-10T03:59:48.805Z,15.90
2018-11-10T04:02:18.002Z,16.93
2018-11-10T04:04:46.917Z,15.73
2018-11-10T04:07:15.910Z,17.10
2018-11-10T04:09:44.953Z,16.07
2018-11-10T04:12:14.095Z,15.73
2018-11-10T04:14:43.149Z,16.53
2018-11-10T04:17:12.383Z,16.00
2018-11-10T04:19:41.414Z,17.73
2018-11-10T04:22:10.470Z,18.50
2018-11-10T04:24:39.805Z,16.40
2018-11-10T04:27:08.858Z,20.77
2018-11-10T04:29:38.102Z,18.70
2018-11-10T04:32:07.198Z,24.13
2018-11-10T04:34:36.335Z,23.60
2018-11-10T04:37:05.586Z,22.33
2018-11-10T04:39:34.682Z,22.60
2018-11-10T04:42:03.465Z,18.40
2018-11-10T04:44:32.721Z,17.27
2018-11-10T04:47:04.610Z,18.37
2018-11-10T04:49:33.702Z,23.20
2018-11-10T04:52:02.918Z,21.17
2018-11-10T04:54:32.183Z,19.33
2018-11-10T04:57:01.490Z,21.70
2018-11-10T04:59:30.753Z,24.23
2018-11-10T05:01:59.917Z,121.73
2018-11-10T05:04:28.975Z,143.33
2018-11-10T05:06:57.954Z,44.63
2018-11-10T05:09:27.060Z,25.53
2018-11-10T05:11:56.490Z,28.97
2018-11-10T05:14:26.162Z,22.60
2018-11-10T05:16:55.253Z,18.47
2018-11-10T05:19:24.158Z,17.27
2018-11-10T05:21:52.997Z,23.80
2018-11-10T05:24:22.216Z,34.13
2018-11-10T05:26:51.531Z,34.73
2018-11-10T05:29:20.649Z,30.10
2018-11-10T05:31:49.578Z,30.53
2018-11-10T05:34:18.862Z,31.87
2018-11-10T05:36:48.058Z,26.10
2018-11-10T05:39:16.893Z,27.00
2018-11-10T05:41:46.133Z,24.93
2018-11-10T05:44:29.878Z,20.80
2018-11-10T05:46:58.696Z,19.17
2018-11-10T05:49:27.793Z,22.40
2018-11-10T05:51:56.814Z,19.70
2018-11-10T05:54:25.946Z,22.33
2018-11-10T05:56:55.102Z,25.27
2018-11-10T05:59:24.571Z,22.70
2018-11-10T06:01:53.606Z,24.33
2018-11-10T06:04:23.006Z,29.40
2018-11-10T06:06:52.294Z,27.63
2018-11-10T06:09:21.372Z,25.43
2018-11-10T06:11:50.250Z,25.87
2018-11-10T06:14:19.412Z,26.07
2018-11-10T06:16:48.577Z,27.93
2018-11-10T06:19:17.412Z,24.33
2018-11-10T06:21:46.714Z,25.73
2018-11-10T06:24:15.526Z,22.57
2018-11-10T06:26:44.505Z,22.40
2018-11-10T06:29:13.721Z,23.57
2018-11-10T06:31:42.959Z,19.67
2018-11-10T06:34:12.133Z,17.70
2018-11-10T06:36:41.332Z,17.07
2018-11-10T06:39:11.282Z,12.87
2018-11-10T06:41:40.001Z,12.20
2018-11-10T06:44:09.155Z,11.30
2018-11-10T06:46:38.281Z,15.37
2018-11-10T06:49:07.894Z,12.40
2018-11-10T06:51:37.230Z,11.80
2018-11-10T06:54:06.626Z,10.90
2018-11-10T06:56:35.622Z,16.43
2018-11-10T06:59:04.798Z,24.43
2018-11-10T07:01:33.654Z,14.53
2018-11-10T07:04:02.585Z,15.30
2018-11-10T07:06:31.813Z,18.67
2018-11-10T07:09:01.259Z,26.73
2018-11-10T07:11:30.504Z,24.23
2018-11-10T07:13:59.845Z,21.77
2018-11-10T07:16:28.987Z,24.30
2018-11-10T07:18:57.856Z,27.33
2018-11-10T07:21:26.841Z,24.20
2018-11-10T07:23:55.954Z,25.67
2018-11-10T07:26:24.867Z,23.83
2018-11-10T07:28:53.858Z,23.80
2018-11-10T07:31:23.197Z,22.80
2018-11-10T07:33:52.598Z,22.30
2018-11-10T07:36:21.529Z,24.00
2018-11-10T07:38:50.606Z,22.80
2018-11-10T07:41:19.562Z,23.43
2018-11-10T07:43:48.726Z,24.67
2018-11-10T07:46:17.770Z,21.47
2018-11-10T07:48:47.029Z,26.07
2018-11-10T07:51:16.441Z,25.67
2018-11-10T07:53:45.465Z,40.57
2018-11-10T07:56:14.761Z,28.17
2018-11-10T07:58:43.727Z,27.10
2018-11-10T08:01:12.942Z,26.20
2018-11-10T08:03:42.201Z,23.47
2018-11-10T08:06:11.446Z,25.70
2018-11-10T08:08:40.339Z,24.87
2018-11-10T08:11:09.333Z,23.60
2018-11-10T08:13:38.378Z,25.00
2018-11-10T08:16:07.541Z,24.47
2018-11-10T08:18:36.812Z,25.17
2018-11-10T08:21:05.830Z,31.17
2018-11-10T08:23:35.018Z,26.40
2018-11-10T08:26:04.068Z,24.33
2018-11-10T08:28:33.374Z,25.93
2018-11-10T08:31:02.684Z,22.70
2018-11-10T08:33:31.595Z,30.07
2018-11-10T08:36:00.610Z,22.17
2018-11-10T08:38:29.881Z,21.77
2018-11-10T08:40:58.775Z,21.43
2018-11-10T08:43:27.578Z,21.57
2018-11-10T08:45:56.971Z,21.40
2018-11-10T08:48:26.012Z,20.60
2018-11-10T08:50:54.766Z,23.87
2018-11-10T08:53:23.898Z,22.30
2018-11-10T08:55:53.345Z,21.90
2018-11-10T08:58:22.706Z,24.60
2018-11-10T09:00:51.998Z,19.53
2018-11-10T09:03:21.334Z,20.20
2018-11-10T09:05:50.341Z,20.83
2018-11-10T09:08:19.635Z,20.93
2018-11-10T09:10:48.646Z,19.13
2018-11-10T09:13:17.809Z,20.80
2018-11-10T09:15:46.798Z,18.90
2018-11-10T09:18:15.869Z,18.50
2018-11-10T09:20:45.065Z,17.83
2018-11-10T09:23:14.303Z,20.63
2018-11-10T09:25:43.389Z,22.20
2018-11-10T09:28:12.306Z,18.33
2018-11-10T09:30:41.370Z,17.63
2018-11-10T09:33:10.274Z,18.80
2018-11-10T09:35:39.381Z,24.33
2018-11-10T09:38:08.380Z,22.60
2018-11-10T09:40:37.610Z,19.20
2018-11-10T09:43:06.579Z,16.47
2018-11-10T09:45:35.798Z,17.03
2018-11-10T09:48:04.886Z,17.03
2018-11-10T09:50:34.045Z,16.70
2018-11-10T09:53:03.351Z,19.97
2018-11-10T09:55:32.550Z,33.37
2018-11-10T09:58:01.929Z,36.00
2018-11-10T10:00:31.130Z,22.27
2018-11-10T10:03:00.333Z,14.37
2018-11-10T10:05:30.318Z,26.97
2018-11-10T10:07:59.398Z,23.07
2018-11-10T10:10:28.648Z,20.60
2018-11-10T10:12:57.854Z,16.40
2018-11-10T10:15:26.994Z,14.97
2018-11-10T10:17:56.311Z,20.13
2018-11-10T10:20:25.417Z,13.57
2018-11-10T10:22:56.633Z,12.57
2018-11-10T10:25:25.553Z,13.73
2018-11-10T10:27:54.490Z,12.80
2018-11-10T10:30:25.722Z,13.70
2018-11-10T10:32:54.856Z,16.70
2018-11-10T10:35:23.918Z,14.97
2018-11-10T10:37:53.323Z,13.63
2018-11-10T10:40:22.612Z,13.47
2018-11-10T10:42:51.911Z,13.43
2018-11-10T10:45:22.974Z,13.73
2018-11-10T10:47:52.424Z,13.50
2018-11-10T10:50:22.549Z,17.17
2018-11-10T10:52:51.453Z,19.50
2018-11-10T10:55:20.608Z,15.70
2018-11-10T10:57:50.427Z,14.23
2018-11-10T11:00:24.694Z,15.23
2018-11-10T11:02:59.065Z,14.03
2018-11-10T11:05:33.273Z,15.43
2018-11-10T11:08:02.177Z,19.50
2018-11-10T11:10:31.537Z,14.27
2018-11-10T11:13:00.834Z,13.77
2018-11-10T11:15:29.993Z,13.53
2018-11-10T11:17:59.065Z,13.00
2018-11-10T11:20:28.586Z,19.07
2018-11-10T11:22:57.622Z,16.17
2018-11-10T11:25:27.077Z,15.30
2018-11-10T11:27:56.048Z,12.00
2018-11-10T11:30:25.086Z,14.20
2018-11-10T11:32:54.209Z,12.93
2018-11-10T11:35:23.478Z,12.30
2018-11-10T11:37:52.525Z,12.95
2018-11-10T11:40:21.698Z,15.68
2018-11-10T11:42:50.841Z,14.13
2018-11-10T11:45:20.028Z,12.47
2018-11-10T11:47:49.021Z,14.45
2018-11-10T11:50:18.327Z,13.03
2018-11-10T11:52:47.620Z,14.03
2018-11-10T11:55:16.876Z,14.45
2018-11-10T11:57:46.150Z,13.28
2018-11-10T12:00:16.495Z,12.40
2018-11-10T12:02:46.200Z,12.60
2018-11-10T12:05:16.669Z,12.03
2018-11-10T12:07:46.293Z,12.13
2018-11-10T12:10:15.842Z,13.08
2018-11-10T12:12:44.997Z,11.73
2018-11-10T12:15:15.346Z,12.80
2018-11-10T12:17:44.227Z,12.60
2018-11-10T12:20:14.338Z,12.37
2018-11-10T12:22:43.342Z,12.23
2018-11-10T12:25:13.534Z,13.13
2018-11-10T12:27:43.297Z,12.15
2018-11-10T12:30:12.711Z,12.85
2018-11-10T12:32:42.163Z,12.05
2018-11-10T12:35:12.774Z,13.95
2018-11-10T12:37:42.115Z,12.82
2018-11-10T12:40:12.551Z,12.65
2018-11-10T12:42:41.822Z,12.73
2018-11-10T12:45:11.797Z,13.03
2018-11-10T12:47:41.316Z,11.90
2018-11-10T12:50:12.176Z,12.37
2018-11-10T12:52:42.138Z,12.90
2018-11-10T12:55:12.526Z,12.90
2018-11-10T12:57:42.257Z,12.87
2018-11-10T13:00:13.000Z,23.53
2018-11-10T13:02:42.098Z,22.13
2018-11-10T13:05:11.833Z,15.00
2018-11-10T13:07:42.018Z,16.03
2018-11-10T13:10:11.639Z,13.40
2018-11-10T13:12:41.383Z,14.13
2018-11-10T13:15:10.986Z,14.93
2018-11-10T13:17:40.483Z,14.97
2018-11-10T13:20:12.718Z,13.50
2018-11-10T13:22:41.995Z,13.00
2018-11-10T13:25:12.169Z,14.63
2018-11-10T13:27:41.294Z,14.17
2018-11-10T13:30:11.711Z,14.73
2018-11-10T13:32:40.556Z,17.43
2018-11-10T13:35:10.387Z,17.93
2018-11-10T13:37:39.506Z,20.47
2018-11-10T13:40:09.379Z,17.03
2018-11-10T13:42:38.549Z,14.90
2018-11-10T13:45:09.454Z,50.40
2018-11-10T13:47:38.434Z,24.30
2018-11-10T13:50:09.330Z,20.60
2018-11-10T13:52:39.423Z,20.67
2018-11-10T13:55:08.078Z,21.97
2018-11-10T13:57:37.361Z,23.97
2018-11-10T14:00:08.850Z,44.57
2018-11-10T14:02:38.139Z,33.77
2018-11-10T14:05:07.062Z,195.83
2018-11-10T14:07:36.386Z,297.20
2018-11-10T14:10:06.023Z,521.90
2018-11-10T14:12:35.318Z,81.53
2018-11-10T14:15:04.528Z,144.40
2018-11-10T14:17:33.763Z,82.37
2018-11-10T14:20:03.153Z,39.57
2018-11-10T14:22:32.314Z,36.50
2018-11-10T14:25:01.299Z,25.60
2018-11-10T14:27:30.078Z,24.27
2018-11-10T14:29:59.121Z,20.47
2018-11-10T14:32:28.050Z,24.17
2018-11-10T14:34:57.989Z,23.33
2018-11-10T14:37:27.202Z,22.53
2018-11-10T14:39:57.111Z,18.57
2018-11-10T14:42:26.095Z,32.60
2018-11-10T14:44:55.398Z,131.13
2018-11-10T14:47:24.353Z,121.33
2018-11-10T14:49:53.445Z,71.20
2018-11-10T14:52:22.746Z,66.50
2018-11-10T14:54:52.210Z,62.40
2018-11-10T14:57:21.455Z,54.30
2018-11-10T14:59:50.482Z,51.97
2018-11-10T15:02:19.658Z,47.60
2018-11-10T15:04:49.057Z,51.23
2018-11-10T15:07:18.111Z,97.97
2018-11-10T15:09:47.438Z,75.77
2018-11-10T15:12:19.081Z,111.03
2018-11-10T15:14:48.178Z,65.90
2018-11-10T15:17:17.489Z,104.20
2018-11-10T15:19:47.309Z,77.63
2018-11-10T15:22:16.397Z,82.63
2018-11-10T15:24:45.423Z,71.87
2018-11-10T15:27:14.286Z,66.27
2018-11-10T15:29:43.517Z,51.93
2018-11-10T15:32:13.187Z,41.37
2018-11-10T15:34:42.437Z,42.57
2018-11-10T15:37:11.683Z,41.67
2018-11-10T15:39:41.521Z,32.60
2018-11-10T15:42:11.576Z,39.50
2018-11-10T15:44:40.831Z,43.73
2018-11-10T15:47:10.223Z,41.33
2018-11-10T15:49:38.957Z,28.33
2018-11-10T15:52:08.714Z,25.97
2018-11-10T15:54:37.993Z,40.33
2018-11-10T15:57:07.410Z,39.07
2018-11-10T15:59:36.740Z,35.87
2018-11-10T16:02:06.558Z,38.77
2018-11-10T16:04:36.317Z,36.33
2018-11-10T16:07:11.539Z,38.37
2018-11-10T16:09:42.561Z,32.20
2018-11-10T16:12:11.578Z,29.63
2018-11-10T16:14:41.492Z,31.10
2018-11-10T16:17:10.521Z,32.80
2018-11-10T16:19:40.482Z,30.60
2018-11-10T16:22:09.805Z,33.70
2018-11-10T16:24:39.099Z,30.50
2018-11-10T16:27:08.926Z,33.70
2018-11-10T16:29:37.819Z,34.53
2018-11-10T16:32:06.985Z,52.30
2018-11-10T16:34:36.133Z,45.33
2018-11-10T16:37:05.812Z,52.83
2018-11-10T16:39:34.666Z,57.57
2018-11-10T16:42:03.670Z,51.13
2018-11-10T16:44:32.733Z,55.13
2018-11-10T16:47:01.965Z,58.33
2018-11-10T16:49:30.927Z,49.77
2018-11-10T16:52:00.163Z,52.90
2018-11-10T16:54:29.280Z,56.83
2018-11-10T16:56:58.504Z,48.97
2018-11-10T16:59:27.601Z,56.47
2018-11-10T17:01:56.718Z,55.13
2018-11-10T17:04:25.547Z,37.50
2018-11-10T17:06:54.756Z,33.80
2018-11-10T17:09:23.758Z,37.47
2018-11-10T17:11:52.723Z,31.03
2018-11-10T17:14:21.941Z,29.20
2018-11-10T17:16:51.705Z,28.67
2018-11-10T17:19:21.853Z,28.47
2018-11-10T17:21:51.271Z,31.13
2018-11-10T17:24:20.428Z,35.93
2018-11-10T17:26:49.642Z,49.33
2018-11-10T17:29:18.682Z,44.60
2018-11-10T17:31:47.626Z,45.73
2018-11-10T17:34:16.727Z,42.17
2018-11-10T17:36:47.486Z,48.20
2018-11-10T17:39:16.837Z,47.50
2018-11-10T17:41:45.991Z,42.60
2018-11-10T17:44:15.355Z,35.87
2018-11-10T17:46:44.590Z,39.77
2018-11-10T17:49:13.870Z,35.33
2018-11-10T17:51:42.890Z,41.93
2018-11-10T17:54:11.902Z,38.40
2018-11-10T17:56:55.823Z,35.57
2018-11-10T17:59:25.553Z,37.33
2018-11-10T18:01:54.695Z,32.70
2018-11-10T18:04:23.706Z,34.20
2018-11-10T18:06:52.848Z,34.37
2018-11-10T18:09:21.881Z,43.60
2018-11-10T18:11:52.480Z,44.90
2018-11-10T18:14:21.849Z,43.10
2018-11-10T18:16:52.222Z,41.10
2018-11-10T18:19:21.621Z,42.03
2018-11-10T18:21:51.387Z,45.27
2018-11-10T18:24:20.401Z,50.30
2018-11-10T18:26:50.177Z,49.10
2018-11-10T18:29:19.047Z,41.93
2018-11-10T18:31:48.258Z,42.93
2018-11-10T18:34:17.149Z,48.60
2018-11-10T18:36:49.064Z,45.90
2018-11-10T18:39:18.237Z,43.50
2018-11-10T18:41:47.410Z,47.00
2018-11-10T18:44:18.129Z,49.57
2018-11-10T18:46:47.313Z,75.10
2018-11-10T18:49:16.177Z,65.90
2018-11-10T18:51:45.400Z,59.47
2018-11-10T18:54:14.801Z,57.33
2018-11-10T18:56:43.702Z,45.73
2018-11-10T18:59:12.641Z,40.00
2018-11-10T19:01:41.951Z,38.73
2018-11-10T19:04:11.149Z,78.17
2018-11-10T19:06:40.257Z,44.00
2018-11-10T19:09:11.917Z,44.83
2018-11-10T19:11:41.180Z,40.40
2018-11-10T19:14:10.317Z,31.13
2018-11-10T19:16:39.386Z,37.00
2018-11-10T19:19:09.709Z,49.23
2018-11-10T19:24:15.178Z,72.57
2018-11-10T19:26:44.043Z,76.63
2018-11-10T19:29:13.159Z,65.80
2018-11-10T19:31:42.194Z,85.63
2018-11-10T19:34:11.259Z,69.40
2018-11-10T19:36:40.341Z,54.33
2018-11-10T19:39:10.889Z,52.03
2018-11-10T19:41:40.104Z,48.43
2018-11-10T19:44:09.548Z,50.90
2018-11-10T19:46:39.197Z,48.50
2018-11-10T19:49:08.785Z,41.20
2018-11-10T19:51:37.942Z,43.30
2018-11-10T19:54:06.587Z,39.13
2018-11-10T19:56:35.829Z,38.77
2018-11-10T19:59:04.857Z,45.53
2018-11-10T20:01:34.073Z,46.03
2018-11-10T20:04:04.222Z,54.00
2018-11-10T20:06:34.218Z,42.23
2018-11-10T20:09:04.814Z,40.43
2018-11-10T20:11:33.866Z,42.80
2018-11-10T20:14:02.985Z,36.10
2018-11-10T20:16:32.240Z,30.40
2018-11-10T20:19:01.479Z,30.37
2018-11-10T20:21:30.542Z,31.90
2018-11-10T20:23:59.777Z,28.80
2018-11-10T20:26:28.705Z,27.40
2018-11-10T20:28:57.934Z,48.07
2018-11-10T20:31:26.922Z,55.40
2018-11-10T20:33:56.087Z,50.30
2018-11-10T20:36:25.014Z,49.13
2018-11-10T20:38:54.150Z,50.13
2018-11-10T20:41:26.377Z,47.70
2018-11-10T20:43:55.667Z,41.40
2018-11-10T20:46:24.770Z,41.63
2018-11-10T20:48:53.883Z,50.30
2018-11-10T20:51:22.901Z,49.93
2018-11-10T20:53:52.142Z,60.23
2018-11-10T20:56:20.898Z,75.33
2018-11-10T20:58:50.165Z,70.23
2018-11-10T21:01:19.194Z,59.80
2018-11-10T21:03:48.430Z,55.00
2018-11-10T21:06:17.622Z,45.97
2018-11-10T21:08:46.679Z,44.03
2018-11-10T21:11:15.823Z,49.87
2018-11-10T21:13:51.144Z,44.50
2018-11-10T21:16:20.185Z,40.73
2018-11-10T21:18:49.337Z,39.77
2018-11-10T21:21:18.641Z,40.87
2018-11-10T21:23:47.842Z,50.30
2018-11-10T21:26:17.075Z,51.43
2018-11-10T21:28:45.923Z,40.13
2018-11-10T21:31:15.029Z,42.70
2018-11-10T21:33:44.076Z,43.37
2018-11-10T21:36:13.157Z,54.47
2018-11-10T21:38:42.162Z,50.67
2018-11-10T21:41:11.248Z,56.73
2018-11-10T21:43:40.078Z,53.50
2018-11-10T21:46:09.066Z,55.50
2018-11-10T21:48:38.353Z,51.00
2018-11-10T21:51:07.470Z,53.87
2018-11-10T21:53:36.523Z,48.60
2018-11-10T21:56:05.786Z,50.07
2018-11-10T21:58:34.622Z,49.30
2018-11-10T22:01:03.618Z,43.40
2018-11-10T22:03:32.642Z,43.73
2018-11-10T22:06:01.890Z,42.30
2018-11-10T22:08:31.030Z,42.20
2018-11-10T22:11:00.191Z,42.27
2018-11-10T22:13:29.501Z,42.03
2018-11-10T22:15:58.669Z,42.83
2018-11-10T22:18:27.805Z,38.20
2018-11-10T22:20:56.918Z,32.57
2018-11-10T22:23:25.726Z,39.83
2018-11-10T22:25:54.875Z,36.40
2018-11-10T22:28:23.998Z,36.40
2018-11-10T22:30:52.915Z,50.47
2018-11-10T22:33:21.762Z,40.57
2018-11-10T22:35:51.026Z,31.37
2018-11-10T22:38:19.835Z,29.43
2018-11-10T22:40:49.162Z,31.23
2018-11-10T22:43:18.149Z,28.53
2018-11-10T22:45:47.357Z,29.93
2018-11-10T22:48:16.585Z,30.73
2018-11-10T22:50:45.390Z,31.77
2018-11-10T22:53:14.399Z,30.17
2018-11-10T22:55:43.704Z,27.20
2018-11-10T22:58:12.763Z,29.37
2018-11-10T23:00:47.055Z,28.23
2018-11-10T23:03:15.974Z,28.87
2018-11-10T23:05:45.053Z,27.17
2018-11-10T23:08:14.112Z,27.07
2018-11-10T23:10:43.066Z,28.80
2018-11-10T23:13:12.190Z,27.47
2018-11-10T23:15:41.357Z,24.67
2018-11-10T23:18:10.510Z,31.70
2018-11-10T23:20:39.679Z,29.57
2018-11-10T23:23:08.831Z,27.33
2018-11-10T23:25:37.677Z,24.07
2018-11-10T23:28:06.867Z,26.07
2018-11-10T23:30:36.074Z,21.20
2018-11-10T23:33:05.653Z,27.07
2018-11-10T23:35:34.850Z,24.83
2018-11-10T23:38:04.141Z,24.27
2018-11-10T23:40:32.982Z,23.63
2018-11-10T23:43:02.249Z,23.30
2018-11-10T23:45:31.540Z,25.53
2018-11-10T23:48:00.397Z,21.67
2018-11-10T23:50:29.522Z,22.27
2018-11-10T23:52:58.322Z,25.43
2018-11-10T23:55:27.264Z,22.13
2018-11-10T23:57:56.359Z,23.20
